createdAt,value
2023-02-09T00:01:50.700Z,103950.77
2023-02-09T00:04:18.831Z,103943.73
2023-02-09T00:06:46.902Z,103942.70
2023-02-09T00:09:15.054Z,103942.23
2023-02-09T00:12:01.788Z,103937.41
2023-02-09T00:14:31.844Z,103942.21
2023-02-09T00:17:02.025Z,103941.21
2023-02-09T00:19:32.936Z,103939.29
2023-02-09T00:22:01.545Z,103935.30
2023-02-09T00:24:29.565Z,103927.46
2023-02-09T00:26:57.622Z,103925.98
2023-02-09T00:29:25.900Z,103918.95
2023-02-09T00:31:54.145Z,103910.59
2023-02-09T00:34:22.413Z,103907.47
2023-02-09T00:36:50.577Z,103899.88
2023-02-09T00:39:18.700Z,103895.50
2023-02-09T00:42:05.394Z,103892.03
2023-02-09T00:44:40.085Z,103892.98
2023-02-09T00:47:09.367Z,103893.64
2023-02-09T00:49:37.551Z,103884.56
2023-02-09T00:52:05.733Z,103876.77
2023-02-09T00:54:33.757Z,103869.64
2023-02-09T00:57:05.582Z,103870.88
2023-02-09T00:59:36.113Z,103874.60
2023-02-09T01:02:04.173Z,103870.59
2023-02-09T01:04:32.977Z,103866.73
2023-02-09T01:07:01.149Z,103862.22
2023-02-09T01:09:29.388Z,103860.54
2023-02-09T01:11:57.426Z,103856.86
2023-02-09T01:14:25.538Z,103849.67
2023-02-09T01:16:53.612Z,103846.34
2023-02-09T01:19:21.765Z,103841.01
2023-02-09T01:21:49.838Z,103833.49
2023-02-09T01:24:18.025Z,103825.38
2023-02-09T01:26:46.000Z,103820.38
2023-02-09T01:29:16.703Z,103822.48
2023-02-09T01:31:45.170Z,103821.19
2023-02-09T01:34:16.684Z,103816.72
2023-02-09T01:36:45.389Z,103818.91
2023-02-09T01:39:14.327Z,103814.73
2023-02-09T01:41:42.933Z,103814.88
2023-02-09T01:44:11.424Z,103808.33
2023-02-09T01:46:39.737Z,103805.07
2023-02-09T01:49:13.530Z,103806.17
2023-02-09T01:51:56.660Z,103804.58
2023-02-09T01:54:32.841Z,103796.16
2023-02-09T01:57:07.235Z,103792.52
2023-02-09T01:59:38.268Z,103787.60
2023-02-09T02:02:09.493Z,103785.05
2023-02-09T02:04:39.608Z,103785.15
2023-02-09T02:07:25.224Z,103779.70
2023-02-09T02:09:55.057Z,103779.83
2023-02-09T02:12:24.390Z,103777.27
2023-02-09T02:14:52.731Z,103778.30
2023-02-09T02:17:32.993Z,103778.42
2023-02-09T02:20:16.212Z,103777.45
2023-02-09T02:23:12.295Z,103774.14
2023-02-09T02:26:01.777Z,103769.52
2023-02-09T02:28:51.723Z,103766.14
2023-02-09T02:31:31.911Z,103760.41
2023-02-09T02:34:09.336Z,103762.21
2023-02-09T02:37:03.316Z,103758.86
2023-02-09T02:40:10.434Z,103757.98
2023-02-09T02:42:51.683Z,103755.58
2023-02-09T02:45:33.687Z,103754.06
2023-02-09T02:48:15.884Z,103752.61
2023-02-09T02:50:55.819Z,103745.67
2023-02-09T02:53:28.615Z,103744.34
2023-02-09T02:56:03.486Z,103740.57
2023-02-09T02:58:34.461Z,103740.98
2023-02-09T03:01:04.910Z,103739.11
2023-02-09T03:03:36.692Z,103731.20
2023-02-09T03:06:06.700Z,103726.52
2023-02-09T03:09:10.201Z,103723.98
2023-02-09T03:11:42.658Z,103730.95
2023-02-09T03:14:39.606Z,103733.13
2023-02-09T03:17:17.396Z,103732.71
2023-02-09T03:19:45.314Z,103730.60
2023-02-09T03:22:25.938Z,103722.33
2023-02-09T03:24:57.559Z,103721.09
2023-02-09T03:27:35.937Z,103725.23
2023-02-09T03:30:07.492Z,103720.36
2023-02-09T03:32:41.282Z,103717.73
2023-02-09T03:35:13.526Z,103710.83
2023-02-09T03:37:41.695Z,103701.45
2023-02-09T03:40:10.675Z,103696.97
2023-02-09T03:42:38.654Z,103693.81
2023-02-09T03:45:08.145Z,103687.15
2023-02-09T03:47:36.434Z,103688.30
2023-02-09T03:50:06.991Z,103686.13
2023-02-09T03:52:35.038Z,103684.86
2023-02-09T03:55:03.435Z,103684.59
2023-02-09T03:57:31.572Z,103681.10
2023-02-09T04:00:01.459Z,103674.48
2023-02-09T04:02:40.064Z,103668.20
2023-02-09T04:05:08.625Z,103673.89
2023-02-09T04:07:37.002Z,103673.67
2023-02-09T04:10:06.244Z,103669.73
2023-02-09T04:12:34.237Z,103669.61
2023-02-09T04:15:02.750Z,103666.72
2023-02-09T04:17:30.796Z,103664.70
2023-02-09T04:19:58.855Z,103656.58
2023-02-09T04:22:27.064Z,103650.77
2023-02-09T04:24:55.009Z,103648.50
2023-02-09T04:27:23.071Z,103641.43
2023-02-09T04:29:51.032Z,103637.69
2023-02-09T04:32:19.311Z,103634.29
2023-02-09T04:34:47.278Z,103633.15
2023-02-09T04:37:15.398Z,103632.19
2023-02-09T04:39:43.426Z,103628.70
2023-02-09T04:42:11.596Z,103628.37
2023-02-09T04:44:39.666Z,103628.90
2023-02-09T04:47:07.635Z,103624.71
2023-02-09T04:49:35.602Z,103620.32
2023-02-09T04:52:04.043Z,103616.94
2023-02-09T04:54:32.019Z,103613.10
2023-02-09T04:57:18.375Z,103608.33
2023-02-09T04:59:46.365Z,103607.77
2023-02-09T05:02:14.491Z,103603.52
2023-02-09T05:04:42.604Z,103600.52
2023-02-09T05:07:10.681Z,103596.20
2023-02-09T05:09:38.726Z,103594.37
2023-02-09T05:12:10.160Z,103588.15
2023-02-09T05:14:38.166Z,103587.56
2023-02-09T05:17:06.307Z,103586.13
2023-02-09T05:19:34.263Z,103585.71
2023-02-09T05:22:02.339Z,103587.00
2023-02-09T05:24:30.401Z,103581.81
2023-02-09T05:26:58.352Z,103579.17
2023-02-09T05:29:26.547Z,103578.86
2023-02-09T05:31:54.670Z,103573.22
2023-02-09T05:34:22.786Z,103571.38
2023-02-09T05:36:50.792Z,103569.61
2023-02-09T05:39:18.766Z,103561.79
2023-02-09T05:42:05.159Z,103566.03
2023-02-09T05:44:33.315Z,103570.35
2023-02-09T05:47:01.479Z,103568.86
2023-02-09T05:49:29.640Z,103570.55
2023-02-09T05:51:57.817Z,103568.42
2023-02-09T05:54:25.836Z,103565.88
2023-02-09T05:56:53.802Z,103563.86
2023-02-09T05:59:21.925Z,103563.30
2023-02-09T06:01:50.521Z,103556.08
2023-02-09T06:04:18.673Z,103556.98
2023-02-09T06:06:47.055Z,103555.64
2023-02-09T06:09:15.159Z,103556.73
2023-02-09T06:11:43.195Z,103552.26
2023-02-09T06:14:11.931Z,103556.95
2023-02-09T06:16:41.375Z,103556.59
2023-02-09T06:19:13.859Z,103554.24
2023-02-09T06:21:41.968Z,103556.88
2023-02-09T06:24:10.774Z,103551.08
2023-02-09T06:26:40.114Z,103548.36
2023-02-09T06:29:09.565Z,103551.91
2023-02-09T06:31:38.457Z,103557.45
2023-02-09T06:34:06.575Z,103554.70
2023-02-09T06:36:34.834Z,103550.12
2023-02-09T06:39:06.522Z,103546.83
2023-02-09T06:41:34.680Z,103546.13
2023-02-09T06:44:03.034Z,103553.28
2023-02-09T06:46:31.329Z,103554.64
2023-02-09T06:48:59.613Z,103552.09
2023-02-09T06:51:27.898Z,103548.79
2023-02-09T06:53:55.971Z,103545.48
2023-02-09T06:56:24.022Z,103546.80
2023-02-09T06:58:52.096Z,103545.12
2023-02-09T07:01:20.201Z,103539.49
2023-02-09T07:03:48.339Z,103536.05
2023-02-09T07:06:18.784Z,103534.19
2023-02-09T07:08:47.209Z,103532.30
2023-02-09T07:11:17.669Z,103533.28
2023-02-09T07:13:46.868Z,103532.77
2023-02-09T07:16:15.579Z,103525.83
2023-02-09T07:18:43.775Z,103524.73
2023-02-09T07:21:20.113Z,103525.05
2023-02-09T07:23:49.024Z,103523.88
2023-02-09T07:26:18.163Z,103522.17
2023-02-09T07:28:46.583Z,103522.39
2023-02-09T07:31:16.061Z,103519.56
2023-02-09T07:33:44.765Z,103521.00
2023-02-09T07:36:14.874Z,103518.89
2023-02-09T07:38:43.650Z,103515.84
2023-02-09T07:41:17.423Z,103510.99
2023-02-09T07:43:45.679Z,103510.75
2023-02-09T07:46:19.927Z,103513.05
2023-02-09T07:48:49.131Z,103508.48
2023-02-09T07:51:26.148Z,103510.10
2023-02-09T07:53:55.412Z,103509.98
2023-02-09T07:56:24.106Z,103513.52
2023-02-09T07:58:53.230Z,103515.35
2023-02-09T08:01:21.999Z,103510.20
2023-02-09T08:03:50.662Z,103509.38
2023-02-09T08:06:40.698Z,103510.17
2023-02-09T08:09:11.522Z,103503.69
2023-02-09T08:11:55.011Z,103500.14
2023-02-09T08:14:30.494Z,103502.30
2023-02-09T08:17:21.658Z,103497.16
2023-02-09T08:20:16.112Z,103491.85
2023-02-09T08:22:51.031Z,103499.14
2023-02-09T08:25:22.749Z,103495.23
2023-02-09T08:27:52.049Z,103498.02
2023-02-09T08:30:20.829Z,103498.55
2023-02-09T08:32:48.789Z,103497.96
2023-02-09T08:35:16.997Z,103500.70
2023-02-09T08:37:44.984Z,103497.83
2023-02-09T08:40:15.134Z,103495.98
2023-02-09T08:42:43.233Z,103498.05
2023-02-09T08:45:11.557Z,103497.11
2023-02-09T08:47:39.850Z,103498.00
2023-02-09T08:50:08.290Z,103495.79
2023-02-09T08:52:36.647Z,103494.17
2023-02-09T08:55:05.334Z,103488.91
2023-02-09T08:57:43.449Z,103489.98
2023-02-09T09:00:13.096Z,103487.21
2023-02-09T09:02:41.214Z,103481.38
2023-02-09T09:05:09.483Z,103476.18
2023-02-09T09:07:37.557Z,103469.06
2023-02-09T09:10:06.247Z,103465.23
2023-02-09T09:12:34.295Z,103468.36
2023-02-09T09:15:02.383Z,103468.48
2023-02-09T09:17:30.558Z,103458.43
2023-02-09T09:19:59.037Z,103463.58
2023-02-09T09:22:27.208Z,103475.14
2023-02-09T09:24:55.597Z,103473.56
2023-02-09T09:27:26.050Z,103473.23
2023-02-09T09:29:56.138Z,103477.80
2023-02-09T09:32:25.135Z,103477.98
2023-02-09T09:34:58.368Z,103482.36
2023-02-09T09:37:26.918Z,103481.58
2023-02-09T09:39:55.293Z,103475.39
2023-02-09T09:42:34.639Z,103472.17
2023-02-09T09:45:06.093Z,103466.89
2023-02-09T09:47:39.866Z,103460.59
2023-02-09T09:50:17.150Z,103454.81
2023-02-09T09:52:50.736Z,103458.29
2023-02-09T09:55:25.769Z,103453.14
2023-02-09T09:57:56.314Z,103452.45
2023-02-09T10:00:28.780Z,103446.63
2023-02-09T10:02:56.833Z,103447.45
2023-02-09T10:05:30.793Z,103445.85
2023-02-09T10:08:05.590Z,103448.91
2023-02-09T10:10:36.453Z,103441.36
2023-02-09T10:13:14.904Z,103438.05
2023-02-09T10:15:48.507Z,103426.70
2023-02-09T10:18:17.849Z,103416.48
2023-02-09T10:20:50.667Z,103413.88
2023-02-09T10:23:27.736Z,103418.55
2023-02-09T10:26:04.989Z,103413.59
2023-02-09T10:28:45.037Z,103411.09
2023-02-09T10:31:23.680Z,103400.27
2023-02-09T10:34:13.648Z,103397.48
2023-02-09T10:36:52.110Z,103397.08
2023-02-09T10:39:30.293Z,103397.81
2023-02-09T10:42:16.443Z,103393.42
2023-02-09T10:44:49.879Z,103380.42
2023-02-09T10:47:20.796Z,103371.33
2023-02-09T10:50:14.201Z,103368.02
2023-02-09T10:53:12.835Z,103366.11
2023-02-09T10:55:42.228Z,103358.43
2023-02-09T10:58:10.209Z,103350.83
2023-02-09T11:00:47.904Z,103345.48
2023-02-09T11:03:19.498Z,103341.02
2023-02-09T11:06:01.061Z,103336.68
2023-02-09T11:08:58.812Z,103330.21
2023-02-09T11:11:34.382Z,103321.30
2023-02-09T11:14:03.370Z,103317.45
2023-02-09T11:16:38.124Z,103306.11
2023-02-09T11:19:43.117Z,103307.87
2023-02-09T11:22:46.958Z,103300.10
2023-02-09T11:25:39.195Z,103295.14
2023-02-09T11:28:25.944Z,103286.92
2023-02-09T11:31:15.636Z,103281.17
2023-02-09T11:34:05.154Z,103274.56
2023-02-09T11:37:04.550Z,103269.02
2023-02-09T11:39:53.684Z,103268.45
2023-02-09T11:42:45.535Z,103263.21
2023-02-09T11:45:19.336Z,103250.80
2023-02-09T11:48:22.721Z,103242.67
2023-02-09T11:51:05.964Z,103239.12
2023-02-09T11:53:56.776Z,103230.56
2023-02-09T11:56:27.479Z,103230.72
2023-02-09T11:59:06.284Z,103221.86
2023-02-09T12:01:45.565Z,103211.88
2023-02-09T12:04:51.906Z,103204.39
2023-02-09T12:07:38.095Z,103186.31
2023-02-09T12:10:15.588Z,103178.06
2023-02-09T12:12:50.162Z,103164.20
2023-02-09T12:15:22.708Z,103158.27
2023-02-09T12:18:01.995Z,103152.04
2023-02-09T12:20:38.980Z,103155.89
2023-02-09T12:23:34.936Z,103149.00
2023-02-09T12:26:12.174Z,103141.30
2023-02-09T12:28:44.090Z,103137.40
2023-02-09T12:31:17.050Z,103136.89
2023-02-09T12:33:45.238Z,103134.89
2023-02-09T12:36:13.818Z,103124.25
2023-02-09T12:38:55.449Z,103116.80
2023-02-09T12:41:34.837Z,103104.45
2023-02-09T12:44:11.615Z,103094.16
2023-02-09T12:46:45.873Z,103098.42
2023-02-09T12:49:13.935Z,103099.73
2023-02-09T12:51:51.789Z,103095.53
2023-02-09T12:54:38.907Z,103094.19
2023-02-09T12:57:16.141Z,103080.60
2023-02-09T12:59:50.804Z,103073.48
2023-02-09T13:02:57.901Z,103077.09
2023-02-09T13:05:38.115Z,103074.96
2023-02-09T13:08:12.242Z,103077.70
2023-02-09T13:10:44.907Z,103078.16
2023-02-09T13:13:12.869Z,103074.98
2023-02-09T13:16:06.593Z,103074.33
2023-02-09T13:18:57.398Z,103077.07
2023-02-09T13:22:01.832Z,103084.77
2023-02-09T13:24:52.944Z,103080.63
2023-02-09T13:27:25.864Z,103080.75
2023-02-09T13:29:58.973Z,103085.52
2023-02-09T13:32:56.636Z,103078.69
2023-02-09T13:35:36.572Z,103079.21
2023-02-09T13:38:16.958Z,103071.31
2023-02-09T13:40:50.473Z,103071.56
2023-02-09T13:43:31.170Z,103073.81
2023-02-09T13:46:01.868Z,103073.23
2023-02-09T13:48:38.987Z,103074.14
2023-02-09T13:51:19.551Z,103074.38
2023-02-09T13:53:59.268Z,103075.20
2023-02-09T13:56:28.675Z,103068.21
2023-02-09T13:58:57.621Z,103064.31
2023-02-09T14:01:31.833Z,103072.14
2023-02-09T14:04:17.645Z,103069.39
2023-02-09T14:07:03.573Z,103061.63
2023-02-09T14:09:48.201Z,103057.60
2023-02-09T14:12:46.987Z,103054.58
2023-02-09T14:15:34.365Z,103050.46
2023-02-09T14:18:02.500Z,103046.53
2023-02-09T14:20:30.763Z,103044.20
2023-02-09T14:23:02.109Z,103048.08
2023-02-09T14:25:31.766Z,103044.76
2023-02-09T14:28:00.109Z,103044.53
2023-02-09T14:30:32.840Z,103045.81
2023-02-09T14:33:03.526Z,103039.66
2023-02-09T14:35:36.794Z,103045.02
2023-02-09T14:38:04.809Z,103046.31
2023-02-09T14:40:37.106Z,103045.13
2023-02-09T14:43:11.212Z,103043.83
2023-02-09T14:45:48.071Z,103039.45
2023-02-09T14:48:27.713Z,103039.73
2023-02-09T14:50:57.803Z,103037.55
2023-02-09T14:53:29.394Z,103033.16
2023-02-09T14:55:58.438Z,103032.48
2023-02-09T14:58:29.364Z,103028.51
2023-02-09T15:01:00.726Z,103037.30
2023-02-09T15:03:28.890Z,103041.64
2023-02-09T15:05:59.180Z,103047.34
2023-02-09T15:08:30.364Z,103046.95
2023-02-09T15:11:24.217Z,103050.39
2023-02-09T15:14:04.086Z,103057.02
2023-02-09T15:16:32.561Z,103058.34
2023-02-09T15:19:01.064Z,103063.98
2023-02-09T15:21:29.101Z,103072.98
2023-02-09T15:23:57.213Z,103082.02
2023-02-09T15:26:27.013Z,103082.30
2023-02-09T15:28:55.156Z,103087.00
2023-02-09T15:31:23.345Z,103086.53
2023-02-09T15:33:51.596Z,103083.04
2023-02-09T15:36:20.892Z,103077.77
2023-02-09T15:38:49.064Z,103074.84
2023-02-09T15:41:36.350Z,103070.95
2023-02-09T15:44:35.525Z,103061.51
2023-02-09T15:47:22.498Z,103046.54
2023-02-09T15:49:51.080Z,103051.68
2023-02-09T15:52:19.921Z,103048.42
2023-02-09T15:54:51.442Z,103049.42
2023-02-09T15:57:19.723Z,103049.04
2023-02-09T15:59:48.999Z,103044.48
2023-02-09T16:02:19.495Z,103042.29
2023-02-09T16:04:48.104Z,103034.83
2023-02-09T16:07:24.850Z,103033.73
2023-02-09T16:09:52.844Z,103034.41
2023-02-09T16:12:20.897Z,103028.38
2023-02-09T16:14:48.900Z,103019.28
2023-02-09T16:17:17.235Z,103011.25
2023-02-09T16:19:49.235Z,103006.08
2023-02-09T16:22:17.737Z,102997.27
2023-02-09T16:24:46.889Z,102992.33
2023-02-09T16:27:21.877Z,102988.75
2023-02-09T16:29:50.322Z,102986.65
2023-02-09T16:32:20.151Z,102983.15
2023-02-09T16:34:48.879Z,102981.61
2023-02-09T16:37:20.266Z,102978.73
2023-02-09T16:39:48.309Z,102974.43
2023-02-09T16:42:16.649Z,102971.74
2023-02-09T16:44:45.298Z,102968.45
2023-02-09T16:47:20.754Z,102966.02
2023-02-09T16:50:03.078Z,102961.71
2023-02-09T16:52:31.150Z,102958.70
2023-02-09T16:55:04.619Z,102952.33
2023-02-09T16:57:32.694Z,102944.53
2023-02-09T17:00:00.845Z,102945.03
2023-02-09T17:02:35.929Z,102948.80
2023-02-09T17:05:19.779Z,102946.21
2023-02-09T17:07:54.802Z,102947.06
2023-02-09T17:10:26.932Z,102948.30
2023-02-09T17:12:55.114Z,102952.89
2023-02-09T17:15:31.085Z,102948.90
2023-02-09T17:18:04.421Z,102939.96
2023-02-09T17:20:41.182Z,102931.27
2023-02-09T17:23:15.978Z,102931.64
2023-02-09T17:25:45.413Z,102922.27
2023-02-09T17:28:15.271Z,102920.08
2023-02-09T17:30:43.990Z,102916.00
2023-02-09T17:33:23.953Z,102921.84
2023-02-09T17:36:23.770Z,102925.30
2023-02-09T17:38:41.819Z,102930.00
2023-02-09T17:41:20.163Z,102930.35
2023-02-09T17:43:50.508Z,102935.27
2023-02-09T17:46:20.046Z,102926.65
2023-02-09T17:48:49.086Z,102916.02
2023-02-09T17:51:23.381Z,102909.17
2023-02-09T17:53:51.574Z,102902.88
2023-02-09T17:56:19.650Z,102890.88
2023-02-09T17:58:47.860Z,102884.42
2023-02-09T18:01:27.789Z,102885.94
2023-02-09T18:03:58.882Z,102881.73
2023-02-09T18:06:37.953Z,102867.48
2023-02-09T18:09:09.401Z,102865.46
2023-02-09T18:11:58.965Z,102855.66
2023-02-09T18:14:28.773Z,102846.02
2023-02-09T18:16:57.223Z,102849.56
2023-02-09T18:19:25.936Z,102861.55
2023-02-09T18:21:59.788Z,102846.60
2023-02-09T18:24:31.428Z,102853.13
2023-02-09T18:26:59.848Z,102835.73
2023-02-09T18:29:30.718Z,102829.75
2023-02-09T18:32:01.111Z,102817.30
2023-02-09T18:34:29.941Z,102811.89
2023-02-09T18:36:57.994Z,102813.10
2023-02-09T18:39:26.035Z,102824.67
2023-02-09T18:41:54.665Z,102823.45
2023-02-09T18:44:29.056Z,102811.73
2023-02-09T18:47:02.542Z,102817.67
2023-02-09T18:49:30.996Z,102823.92
2023-02-09T18:51:59.746Z,102819.45
2023-02-09T18:54:29.186Z,102820.09
2023-02-09T18:56:57.313Z,102825.72
2023-02-09T18:59:30.737Z,102827.56
2023-02-09T19:01:59.714Z,102830.60
2023-02-09T19:04:27.869Z,102835.59
2023-02-09T19:06:56.240Z,102830.02
2023-02-09T19:09:24.407Z,102823.62
2023-02-09T19:11:52.477Z,102827.59
2023-02-09T19:14:38.736Z,102821.08
2023-02-09T19:17:08.796Z,102825.77
2023-02-09T19:19:38.280Z,102815.27
2023-02-09T19:22:06.353Z,102812.89
2023-02-09T19:24:35.214Z,102816.14
2023-02-09T19:27:06.752Z,102825.14
2023-02-09T19:29:36.828Z,102817.58
2023-02-09T19:32:06.229Z,102810.63
2023-02-09T19:34:37.032Z,102806.10
2023-02-09T19:37:06.566Z,102799.48
2023-02-09T19:39:38.218Z,102790.39
2023-02-09T19:42:06.419Z,102783.45
2023-02-09T19:44:35.308Z,102794.33
2023-02-09T19:47:03.457Z,102795.34
2023-02-09T19:49:33.374Z,102788.63
2023-02-09T19:52:02.296Z,102803.73
2023-02-09T19:54:30.295Z,102808.38
2023-02-09T19:56:58.814Z,102812.92
2023-02-09T19:59:26.888Z,102801.55
2023-02-09T20:01:55.388Z,102786.98
2023-02-09T20:04:23.538Z,102777.26
2023-02-09T20:06:51.522Z,102774.84
2023-02-09T20:09:19.592Z,102772.27
2023-02-09T20:11:50.538Z,102775.84
2023-02-09T20:14:18.684Z,102775.96
2023-02-09T20:16:46.720Z,102769.63
2023-02-09T20:19:14.825Z,102773.09
2023-02-09T20:21:42.978Z,102768.77
2023-02-09T20:24:13.629Z,102764.16
2023-02-09T20:26:41.751Z,102762.60
2023-02-09T20:29:11.511Z,102763.73
2023-02-09T20:31:41.549Z,102771.23
2023-02-09T20:34:13.291Z,102775.34
2023-02-09T20:36:44.810Z,102774.20
2023-02-09T20:39:16.351Z,102767.02
2023-02-09T20:42:07.291Z,102758.77
2023-02-09T20:44:54.208Z,102750.55
2023-02-09T20:47:22.303Z,102749.08
2023-02-09T20:49:50.362Z,102739.16
2023-02-09T20:52:18.517Z,102734.85
2023-02-09T20:54:46.589Z,102727.27
2023-02-09T20:57:14.541Z,102723.02
2023-02-09T20:59:42.569Z,102725.71
2023-02-09T21:02:12.934Z,102724.58
2023-02-09T21:04:40.949Z,102727.84
2023-02-09T21:07:09.088Z,102731.46
2023-02-09T21:09:38.144Z,102734.50
2023-02-09T21:12:06.800Z,102728.81
2023-02-09T21:14:42.011Z,102726.16
2023-02-09T21:17:11.631Z,102721.71
2023-02-09T21:19:40.266Z,102715.94
2023-02-09T21:22:08.600Z,102713.02
2023-02-09T21:24:39.446Z,102711.64
2023-02-09T21:27:07.949Z,102711.06
2023-02-09T21:29:36.667Z,102710.52
2023-02-09T21:32:07.201Z,102708.38
2023-02-09T21:34:35.989Z,102709.61
2023-02-09T21:37:04.056Z,102712.16
2023-02-09T21:39:32.391Z,102707.91
2023-02-09T21:42:19.040Z,102707.04
2023-02-09T21:44:47.320Z,102703.95
2023-02-09T21:47:15.399Z,102702.38
2023-02-09T21:49:43.629Z,102710.39
2023-02-09T21:52:11.729Z,102715.09
2023-02-09T21:54:40.000Z,102713.52
2023-02-09T21:57:08.070Z,102715.67
2023-02-09T21:59:36.148Z,102708.18
2023-02-09T22:02:04.420Z,102703.01
2023-02-09T22:04:32.456Z,102696.25
2023-02-09T22:07:00.586Z,102690.83
2023-02-09T22:09:29.265Z,102692.16
2023-02-09T22:11:57.437Z,102691.90
2023-02-09T22:14:25.692Z,102691.63
2023-02-09T22:16:53.775Z,102684.86
2023-02-09T22:19:21.929Z,102677.12
2023-02-09T22:21:51.142Z,102662.83
2023-02-09T22:24:20.191Z,102672.67
2023-02-09T22:26:48.299Z,102678.27
2023-02-09T22:29:17.040Z,102672.30
2023-02-09T22:31:45.451Z,102669.20
2023-02-09T22:34:13.680Z,102670.11
2023-02-09T22:36:41.717Z,102657.73
2023-02-09T22:39:09.834Z,102653.27
2023-02-09T22:41:38.064Z,102655.11
2023-02-09T22:44:08.634Z,102658.37
2023-02-09T22:46:39.180Z,102662.78
2023-02-09T22:49:18.287Z,102656.80
2023-02-09T22:51:48.567Z,102653.23
2023-02-09T22:54:18.881Z,102655.73
2023-02-09T22:56:47.261Z,102657.73
2023-02-09T22:59:16.130Z,102652.11
2023-02-09T23:01:45.196Z,102645.27
2023-02-09T23:04:13.581Z,102641.11
2023-02-09T23:06:41.575Z,102639.29
2023-02-09T23:09:10.189Z,102636.42
2023-02-09T23:11:38.661Z,102639.83
2023-02-09T23:14:09.975Z,102644.86
2023-02-09T23:16:41.050Z,102639.35
2023-02-09T23:19:13.177Z,102641.89
2023-02-09T23:21:44.058Z,102637.34
2023-02-09T23:24:13.861Z,102630.86
2023-02-09T23:26:42.544Z,102634.31
2023-02-09T23:29:13.243Z,102633.88
2023-02-09T23:31:42.327Z,102633.37
2023-02-09T23:34:15.860Z,102636.25
2023-02-09T23:36:44.469Z,102631.03
2023-02-09T23:39:15.847Z,102621.66
2023-02-09T23:41:44.244Z,102621.78
2023-02-09T23:44:12.397Z,102625.27
2023-02-09T23:46:40.796Z,102625.25
2023-02-09T23:49:08.910Z,102632.19
2023-02-09T23:51:37.503Z,102634.11
2023-02-09T23:54:07.146Z,102628.55
2023-02-09T23:56:39.011Z,102624.36
2023-02-09T23:59:11.886Z,102622.77
